GCRR Airport Information

Runway Information
Runway 03 Length 7874 ft width 148 ft
Elevation 18 ft Threshold ft Heading 27
Runway 21 Length 7874 ft Width 148 ft
Elevation 47 ft Threshold ft Heading 207
Airport Frequencies
Type APP Name CANARIAS A Frequency 129.3 MHZ
Type ATIS Name ATIS Frequency 118.625 MHZ
Type GND Name GND Frequency 121.8 MHZ
Type TWR Name TWR Frequency 120.7 MHZ
Airport Navaids
Type VOR-DME Name Lanzarote Frequency 113700 KHZ
Type NDB Name Lanzarote Frequency 310 KHZ
Type VOR-DME Name Lanzarote Frequency 115200 KHZ
Type TACAN Name Lanzarote Frequency 114700 KHZ
Airport Weather Information & NOTAM
ADDS - METARS form results

(0139 UTC 13 September 2022)
Data provider http://aviationweather.gov/metar/data/
 
METAR text: GCRR 130130Z AUTO 24002KT CAVOK 23/20 Q1013
Conditions at: GCRR (ARRECIFE/LANZARO, ES) observed 0130 UTC 13 September 2022
Temperature: 23.0°C (73°F)
Dewpoint: 20.0°C (68°F) [RH = 83%]
Pressure (altimeter): 29.91 inches Hg (1013.0 mb)
Winds: from the WSW (240 degrees) at 2 MPH (2 knots; 1.0 m/s)
Visibility: 6 or more miles (10+ km)
Ceiling: ceiling and visibility are OK
Clouds: unknown
Weather: no significant weather observed at this time

METAR text: GCRR 130100Z AUTO 20002KT CAVOK 24/21 Q1013
Conditions at: GCRR (ARRECIFE/LANZARO, ES) observed 0100 UTC 13 September 2022
Temperature: 24.0°C (75°F)
Dewpoint: 21.0°C (70°F) [RH = 83%]
Pressure (altimeter): 29.91 inches Hg (1013.0 mb)
Winds: from the SSW (200 degrees) at 2 MPH (2 knots; 1.0 m/s)
Visibility: 6 or more miles (10+ km)
Ceiling: ceiling and visibility are OK
Clouds: unknown
Weather: no significant weather observed at this time

Forecast for: GCRR (ARRECIFE/LANZARO, ES)
Text: TAF GCRR 122000Z 1221/1321 32005KT 9999 SCT020 TX30/1314Z TN22/1306Z
Forecast period: 2100 UTC 12 September 2022 to 2100 UTC 13 September 2022
Forecast type: FROM: standard forecast or significant change
Winds: from the NW (320 degrees) at 6 MPH (5 knots; 2.6 m/s)
Visibility: 6 or more miles (10+ km)
Ceiling: at least 12,000 feet AGL
Clouds: scattered clouds at 2000 feet AGL
Weather: no significant weather forecast for this period
Text: TEMPO 1221/1301 25010KT
Forecast period: 2100 UTC 12 September 2022 to 0100 UTC 13 September 2022
Forecast type: TEMPORARY: The following changes expected for less than half the time period
Winds: from the WSW (250 degrees) at 12 MPH (10 knots; 5.1 m/s)
Visibility: missing
Ceiling: unknown
Clouds: missing
Weather: no significant weather forecast for this period